Time;durP1;ratioP1;P1;durP2;ratioP2;P2;SDS_P1;SDS_P2;PMS_P1;PMS_P2;Temp;Humidity;BMP_temperature;BMP_pressure;BME280_temperature;BME280_humidity;BME280_pressure;Samples;Min_cycle;Max_cycle;Signal;HPM_P1;HPM_P2
2023/12/08 00:01:02;;;;;;;17.70;13.00;;;4.10;99.90;;;;;;5053949;28;20485;-63
2023/12/08 00:03:28;;;;;;;15.73;12.20;;;4.20;99.90;;;;;;5052525;28;20979;-63
2023/12/08 00:05:55;;;;;;;16.30;12.70;;;4.10;99.90;;;;;;5053071;28;20812;-63
2023/12/08 00:08:23;;;;;;;15.80;11.83;;;4.20;99.90;;;;;;5052835;28;20477;-63
2023/12/08 00:10:50;;;;;;;16.43;11.97;;;4.20;99.90;;;;;;5053883;28;20874;-63
2023/12/08 00:13:17;;;;;;;17.10;12.47;;;4.20;99.90;;;;;;5056590;28;20940;-63
2023/12/08 00:15:43;;;;;;;15.13;11.00;;;4.20;99.90;;;;;;5056797;28;20468;-63
2023/12/08 00:18:10;;;;;;;19.43;11.57;;;4.20;99.90;;;;;;5056831;28;20440;-63
2023/12/08 00:20:37;;;;;;;15.40;11.20;;;4.30;99.90;;;;;;5056563;28;20499;-63
2023/12/08 00:23:04;;;;;;;16.37;11.87;;;4.30;99.90;;;;;;5056659;28;20490;-64
2023/12/08 00:25:32;;;;;;;18.17;11.90;;;4.40;99.90;;;;;;5056665;28;20446;-64
2023/12/08 00:27:59;;;;;;;14.40;10.83;;;4.30;99.90;;;;;;5056623;28;20449;-64
2023/12/08 00:30:26;;;;;;;15.80;11.23;;;4.30;99.90;;;;;;5056486;28;20461;-63
2023/12/08 00:32:53;;;;;;;18.37;11.97;;;4.40;99.90;;;;;;5056527;28;20477;-63
2023/12/08 00:35:20;;;;;;;14.77;10.90;;;4.40;99.90;;;;;;5056348;28;20438;-63
2023/12/08 00:37:47;;;;;;;16.00;11.90;;;4.50;99.90;;;;;;5056324;28;20463;-64
2023/12/08 00:40:14;;;;;;;13.47;10.93;;;4.50;99.90;;;;;;5056203;28;20461;-64
2023/12/08 00:42:42;;;;;;;17.40;11.53;;;4.50;99.90;;;;;;5055938;28;20973;-64
2023/12/08 00:45:10;;;;;;;15.93;11.57;;;4.50;99.90;;;;;;5056271;28;20452;-64
2023/12/08 00:47:37;;;;;;;14.93;11.37;;;4.40;99.70;;;;;;5056012;28;20954;-64
2023/12/08 00:50:04;;;;;;;17.30;11.60;;;4.40;99.90;;;;;;5055645;28;20485;-64
2023/12/08 00:52:30;;;;;;;19.43;10.80;;;4.40;99.90;;;;;;5056110;28;20445;-64
2023/12/08 00:54:57;;;;;;;14.47;10.60;;;4.40;99.90;;;;;;5056202;28;20441;-63
2023/12/08 00:57:24;;;;;;;18.20;11.53;;;4.40;99.90;;;;;;5056017;28;20454;-64
2023/12/08 00:59:52;;;;;;;17.07;12.27;;;4.50;99.90;;;;;;5055063;28;20473;-64
2023/12/08 01:02:19;;;;;;;15.53;10.10;;;4.50;99.90;;;;;;5055502;28;20445;-64
2023/12/08 01:04:45;;;;;;;19.90;12.43;;;4.50;99.30;;;;;;5055891;28;20426;-64
2023/12/08 01:07:12;;;;;;;15.87;11.67;;;4.50;99.30;;;;;;5055750;28;20809;-64
2023/12/08 01:09:39;;;;;;;15.13;11.40;;;4.50;99.50;;;;;;5055809;28;20496;-64
2023/12/08 01:12:06;;;;;;;14.37;11.00;;;4.50;99.80;;;;;;5055627;28;20441;-64
2023/12/08 01:14:33;;;;;;;14.27;11.13;;;4.50;99.00;;;;;;5055762;28;20441;-64
2023/12/08 01:17:01;;;;;;;14.63;10.97;;;4.50;99.10;;;;;;5055270;28;21015;-64
2023/12/08 01:19:28;;;;;;;13.77;10.63;;;4.50;99.20;;;;;;5055537;28;20476;-64
2023/12/08 01:21:54;;;;;;;18.07;13.00;;;4.50;99.00;;;;;;5054522;28;20445;-64
2023/12/08 01:24:21;;;;;;;13.93;11.20;;;4.50;99.30;;;;;;5055315;28;20445;-64
2023/12/08 01:26:48;;;;;;;14.27;10.60;;;4.50;99.40;;;;;;5055406;28;20445;-64
2023/12/08 01:29:14;;;;;;;13.20;10.30;;;4.60;99.30;;;;;;5055164;28;20484;-64
2023/12/08 01:31:41;;;;;;;13.67;11.27;;;4.70;99.40;;;;;;5055278;28;20464;-64
2023/12/08 01:34:09;;;;;;;17.10;12.50;;;4.70;99.40;;;;;;5055336;28;20446;-64
2023/12/08 01:36:36;;;;;;;18.27;12.87;;;4.80;99.50;;;;;;5055889;28;20449;-64
2023/12/08 01:39:03;;;;;;;14.90;10.70;;;4.80;99.60;;;;;;5054776;28;20440;-64
2023/12/08 01:41:29;;;;;;;13.13;10.67;;;4.80;99.50;;;;;;5055074;28;20465;-65
2023/12/08 01:43:56;;;;;;;13.50;10.30;;;4.90;99.60;;;;;;5055122;28;20446;-64
2023/12/08 01:46:23;;;;;;;13.90;12.10;;;4.90;99.80;;;;;;5054944;28;20446;-63
2023/12/08 01:48:50;;;;;;;15.70;12.07;;;4.90;99.90;;;;;;5054910;28;20477;-61
2023/12/08 01:51:20;;;;;;;17.63;12.40;;;4.90;99.90;;;;;;5054921;28;20461;-61
2023/12/08 01:53:47;;;;;;;14.23;11.97;;;4.90;99.90;;;;;;5055000;28;20442;-61
2023/12/08 01:56:15;;;;;;;14.00;11.27;;;4.90;99.90;;;;;;5054753;28;20448;-62
2023/12/08 01:58:42;;;;;;;14.50;11.87;;;4.90;99.90;;;;;;5054477;28;20846;-63
2023/12/08 02:01:11;;;;;;;16.47;12.50;;;5.00;99.90;;;;;;5054693;28;20878;-63
2023/12/08 02:03:40;;;;;;;17.10;11.03;;;5.00;99.90;;;;;;5054342;28;20485;-63
2023/12/08 02:06:06;;;;;;;17.57;12.73;;;5.00;99.90;;;;;;5054673;28;20453;-63
2023/12/08 02:08:35;;;;;;;16.00;11.70;;;4.90;99.90;;;;;;5054464;28;20469;-63
2023/12/08 02:11:01;;;;;;;14.83;11.43;;;4.90;99.90;;;;;;5054569;28;20461;-63
2023/12/08 02:13:28;;;;;;;19.07;13.70;;;4.80;99.90;;;;;;5054615;28;20449;-63
2023/12/08 02:16:03;;;;;;;18.90;12.47;;;4.80;99.90;;;;;;5054269;28;20449;-63
2023/12/08 02:18:31;;;;;;;20.63;15.13;;;4.80;99.90;;;;;;5054488;28;20852;-63
2023/12/08 02:20:58;;;;;;;15.80;12.63;;;4.80;99.90;;;;;;5054201;28;20465;-64
2023/12/08 02:23:24;;;;;;;16.57;11.60;;;4.70;99.90;;;;;;5054452;28;20449;-64
2023/12/08 02:25:52;;;;;;;17.90;12.03;;;4.70;99.90;;;;;;5054190;28;20437;-63
2023/12/08 02:28:20;;;;;;;15.50;10.90;;;4.80;99.90;;;;;;5054312;28;20444;-64
2023/12/08 02:30:48;;;;;;;16.70;12.20;;;4.70;99.90;;;;;;5054160;28;20519;-64
2023/12/08 02:33:21;;;;;;;15.67;11.70;;;4.80;99.90;;;;;;5053856;28;20437;-64
2023/12/08 02:35:49;;;;;;;15.40;12.03;;;4.70;99.90;;;;;;5054653;28;20422;-64
2023/12/08 02:38:20;;;;;;;15.03;12.00;;;4.70;99.90;;;;;;5053731;28;20998;-64
2023/12/08 02:40:46;;;;;;;15.37;12.10;;;4.70;99.90;;;;;;5054029;28;20870;-64
2023/12/08 02:43:15;;;;;;;16.60;11.90;;;4.70;99.90;;;;;;5054196;28;20462;-64
2023/12/08 02:45:42;;;;;;;14.90;10.60;;;4.60;99.90;;;;;;5054294;28;20449;-64
2023/12/08 02:48:09;;;;;;;15.27;11.57;;;4.60;99.90;;;;;;5053585;28;20433;-64
2023/12/08 02:50:36;;;;;;;13.30;11.33;;;4.60;99.90;;;;;;5053740;28;20489;-64
2023/12/08 02:53:02;;;;;;;14.47;11.00;;;4.60;99.90;;;;;;5053918;28;20880;-64
2023/12/08 02:55:29;;;;;;;15.37;11.90;;;4.60;99.90;;;;;;5053538;28;20959;-64
2023/12/08 02:57:56;;;;;;;19.70;12.40;;;4.60;99.90;;;;;;5054028;28;20442;-65
2023/12/08 03:00:24;;;;;;;16.60;12.70;;;4.60;99.90;;;;;;5053633;28;20488;-63
2023/12/08 03:02:50;;;;;;;16.40;13.00;;;4.60;99.90;;;;;;5053318;28;20457;-64
2023/12/08 03:05:17;;;;;;;17.13;12.87;;;4.70;99.90;;;;;;5053939;28;20438;-64
2023/12/08 03:07:44;;;;;;;17.40;11.60;;;4.70;99.90;;;;;;5053883;28;20449;-64
2023/12/08 03:10:11;;;;;;;19.40;12.17;;;4.60;99.90;;;;;;5053381;28;20485;-64
2023/12/08 03:12:37;;;;;;;17.27;12.83;;;4.60;99.90;;;;;;5053350;28;20445;-63
2023/12/08 03:15:05;;;;;;;13.83;11.80;;;4.70;99.90;;;;;;5053461;28;20437;-63
2023/12/08 03:17:33;;;;;;;15.83;12.00;;;4.60;99.90;;;;;;5053546;28;20477;-63
2023/12/08 03:20:00;;;;;;;19.03;12.80;;;4.70;99.90;;;;;;5053360;28;20457;-62
2023/12/08 03:22:27;;;;;;;17.03;12.50;;;4.70;99.90;;;;;;5053302;28;20441;-62
2023/12/08 03:24:54;;;;;;;15.63;12.27;;;4.70;99.90;;;;;;5054303;28;20813;-61
2023/12/08 03:27:21;;;;;;;14.60;11.87;;;4.70;99.90;;;;;;5053420;28;20445;-61
2023/12/08 03:29:47;;;;;;;16.50;13.83;;;4.70;99.90;;;;;;5053326;28;20496;-61
2023/12/08 03:32:14;;;;;;;16.20;11.77;;;4.60;99.90;;;;;;5053659;28;20441;-62
2023/12/08 03:34:42;;;;;;;21.20;12.37;;;4.60;99.90;;;;;;5053585;28;20437;-62
2023/12/08 03:37:09;;;;;;;17.40;12.53;;;4.60;99.90;;;;;;5053432;28;20441;-62
2023/12/08 03:39:35;;;;;;;16.93;12.80;;;4.60;99.90;;;;;;5053521;28;20464;-61
2023/12/08 03:42:01;;;;;;;16.87;12.63;;;4.70;99.90;;;;;;5053541;28;20446;-61
2023/12/08 03:44:28;;;;;;;14.63;10.93;;;4.60;99.90;;;;;;5053457;28;20444;-61
2023/12/08 03:46:54;;;;;;;17.80;11.50;;;4.60;99.90;;;;;;5056821;28;20214;-61
2023/12/08 03:49:21;;;;;;;18.13;12.53;;;4.60;99.90;;;;;;5057755;28;20482;-62
2023/12/08 03:51:49;;;;;;;19.53;13.00;;;4.50;99.90;;;;;;5057468;28;20437;-62
2023/12/08 03:54:16;;;;;;;18.37;12.33;;;4.50;99.90;;;;;;5057242;28;20441;-61
2023/12/08 03:56:42;;;;;;;15.13;11.97;;;4.40;99.90;;;;;;5057358;28;20442;-62
2023/12/08 03:59:10;;;;;;;21.43;14.17;;;4.50;99.90;;;;;;5057151;28;20441;-61
2023/12/08 04:01:36;;;;;;;17.80;13.10;;;4.50;99.90;;;;;;5057164;28;20851;-62
2023/12/08 04:04:03;;;;;;;17.80;13.60;;;4.40;99.90;;;;;;5056998;28;20846;-62
2023/12/08 04:06:30;;;;;;;19.07;13.93;;;4.40;99.90;;;;;;5057148;28;20989;-62
2023/12/08 04:08:58;;;;;;;21.63;13.40;;;4.40;99.90;;;;;;5057567;28;20453;-61
2023/12/08 04:11:25;;;;;;;18.60;12.47;;;4.40;99.90;;;;;;5056835;28;20469;-61
2023/12/08 04:13:51;;;;;;;19.60;14.20;;;4.40;99.90;;;;;;5056881;28;20520;-61
2023/12/08 04:16:18;;;;;;;18.10;13.60;;;4.30;99.90;;;;;;5056810;28;20448;-61
2023/12/08 04:18:45;;;;;;;23.17;16.03;;;4.30;99.90;;;;;;5056683;28;20445;-61
2023/12/08 04:21:17;;;;;;;20.33;14.80;;;4.30;99.90;;;;;;5056691;28;20468;-61
2023/12/08 04:23:44;;;;;;;23.60;14.13;;;4.40;99.90;;;;;;5056740;28;20457;-61
2023/12/08 04:26:12;;;;;;;25.23;14.10;;;4.40;99.90;;;;;;5056173;28;20843;-61
2023/12/08 04:28:39;;;;;;;18.97;12.77;;;4.40;99.90;;;;;;5056581;28;20468;-61
2023/12/08 04:31:06;;;;;;;21.17;14.00;;;4.40;99.90;;;;;;5056352;28;20516;-61
2023/12/08 04:33:33;;;;;;;21.03;14.50;;;4.30;99.90;;;;;;5056266;28;20499;-61
2023/12/08 04:36:00;;;;;;;19.30;13.60;;;4.40;99.90;;;;;;5056358;28;20449;-62
2023/12/08 04:38:26;;;;;;;23.13;15.27;;;4.30;99.90;;;;;;5056171;28;20806;-61
2023/12/08 04:40:53;;;;;;;23.00;14.93;;;4.30;99.90;;;;;;5055846;28;20469;-62
2023/12/08 04:43:21;;;;;;;21.67;14.60;;;4.30;99.90;;;;;;5056296;28;20821;-62
2023/12/08 04:45:48;;;;;;;21.10;13.80;;;4.30;99.90;;;;;;5056181;28;20442;-62
2023/12/08 04:48:14;;;;;;;18.10;12.00;;;4.20;99.90;;;;;;5056183;28;20445;-62
2023/12/08 04:50:41;;;;;;;19.20;13.33;;;4.20;99.90;;;;;;5055972;28;20481;-62
2023/12/08 04:53:08;;;;;;;19.70;13.20;;;4.20;99.90;;;;;;5055998;28;20823;-63
2023/12/08 04:55:34;;;;;;;18.60;12.90;;;4.20;99.90;;;;;;5055571;28;20491;-63
2023/12/08 04:58:01;;;;;;;15.30;11.37;;;4.20;99.90;;;;;;5055940;28;20464;-63
2023/12/08 05:00:29;;;;;;;16.87;11.97;;;4.20;99.90;;;;;;5055860;28;20465;-63
2023/12/08 05:02:57;;;;;;;20.97;13.03;;;4.20;99.90;;;;;;5055746;28;20484;-63
2023/12/08 05:05:24;;;;;;;18.10;13.30;;;4.30;99.90;;;;;;5055714;28;20536;-63
2023/12/08 05:07:51;;;;;;;18.57;13.17;;;4.20;99.90;;;;;;5055867;28;20445;-63
2023/12/08 05:10:18;;;;;;;21.50;12.73;;;4.30;99.90;;;;;;5056116;28;20521;-63
2023/12/08 05:12:44;;;;;;;16.37;12.30;;;4.20;99.90;;;;;;5055255;28;20441;-63
2023/12/08 05:15:11;;;;;;;20.37;11.70;;;4.20;99.90;;;;;;5055629;28;20445;-63
2023/12/08 05:17:39;;;;;;;17.23;12.00;;;4.30;99.90;;;;;;5055612;28;20461;-63
2023/12/08 05:20:07;;;;;;;15.80;11.20;;;4.30;99.90;;;;;;5055558;28;20465;-63
2023/12/08 05:22:34;;;;;;;18.80;12.57;;;4.30;99.90;;;;;;5055530;28;20445;-63
2023/12/08 05:25:00;;;;;;;18.23;12.97;;;4.40;99.90;;;;;;5055696;28;20456;-63
2023/12/08 05:27:27;;;;;;;20.03;15.37;;;4.40;99.90;;;;;;5055451;28;20471;-63
2023/12/08 05:29:54;;;;;;;18.87;13.23;;;4.50;99.90;;;;;;5055309;28;20481;-64
2023/12/08 05:32:20;;;;;;;21.37;14.80;;;4.50;99.90;;;;;;5055042;28;20441;-64
2023/12/08 05:34:48;;;;;;;23.63;15.70;;;4.50;99.90;;;;;;5054947;28;20923;-64
2023/12/08 05:37:15;;;;;;;20.30;14.90;;;4.60;99.90;;;;;;5055327;28;20861;-64
2023/12/08 05:39:42;;;;;;;21.77;15.33;;;4.70;99.90;;;;;;5055198;28;20465;-63
2023/12/08 05:42:08;;;;;;;19.40;14.97;;;4.70;99.90;;;;;;5055149;28;20450;-63
2023/12/08 05:44:36;;;;;;;21.53;14.60;;;4.80;99.90;;;;;;5055295;28;20438;-64
2023/12/08 05:47:03;;;;;;;22.27;13.73;;;4.80;99.90;;;;;;5055201;28;20442;-64
2023/12/08 05:49:30;;;;;;;27.13;16.13;;;4.80;99.90;;;;;;5054823;28;20474;-64
2023/12/08 05:51:58;;;;;;;22.67;15.33;;;4.80;99.90;;;;;;5054965;28;20453;-64
2023/12/08 05:54:24;;;;;;;16.97;13.20;;;4.90;99.90;;;;;;5054868;28;20442;-64
2023/12/08 05:56:51;;;;;;;25.03;15.63;;;4.90;99.90;;;;;;5055129;28;20442;-64
2023/12/08 05:59:18;;;;;;;26.30;17.80;;;4.90;99.90;;;;;;5054808;28;20458;-64
2023/12/08 06:01:44;;;;;;;22.17;15.70;;;4.90;99.90;;;;;;5055119;28;20444;-64
2023/12/08 06:04:11;;;;;;;23.50;16.00;;;5.00;99.90;;;;;;5054789;28;20457;-64
2023/12/08 06:06:39;;;;;;;22.80;15.70;;;5.00;99.90;;;;;;5054985;28;20850;-64
2023/12/08 06:09:07;;;;;;;23.77;16.13;;;5.00;99.90;;;;;;5054414;28;20532;-64
2023/12/08 06:11:34;;;;;;;24.30;18.30;;;5.00;99.90;;;;;;5054550;28;20485;-64
2023/12/08 06:14:00;;;;;;;27.50;17.80;;;5.10;99.90;;;;;;5054477;28;20829;-64
2023/12/08 06:16:27;;;;;;;24.33;16.67;;;5.10;99.90;;;;;;5054646;28;20464;-64
2023/12/08 06:18:54;;;;;;;26.13;16.77;;;5.10;99.90;;;;;;5054741;28;20449;-64
2023/12/08 06:21:20;;;;;;;21.57;15.97;;;5.10;99.90;;;;;;5054560;28;20512;-64
2023/12/08 06:23:47;;;;;;;23.60;16.97;;;5.10;99.90;;;;;;5054629;28;20441;-64
2023/12/08 06:26:15;;;;;;;23.77;16.80;;;5.10;99.90;;;;;;5054418;28;20441;-64
2023/12/08 06:28:42;;;;;;;28.83;15.90;;;5.10;99.90;;;;;;5054071;28;20442;-64
2023/12/08 06:31:09;;;;;;;22.77;16.50;;;5.10;99.90;;;;;;5054221;28;20477;-64
2023/12/08 06:33:36;;;;;;;23.53;16.80;;;5.10;99.90;;;;;;5054266;28;20468;-63
2023/12/08 06:36:04;;;;;;;24.20;18.73;;;5.10;99.90;;;;;;5054241;28;20445;-63
2023/12/08 06:38:31;;;;;;;25.30;17.40;;;5.10;99.90;;;;;;5054209;28;20441;-64
2023/12/08 06:40:57;;;;;;;27.33;16.90;;;5.10;99.90;;;;;;5054173;28;20458;-63
2023/12/08 06:43:25;;;;;;;21.83;15.23;;;5.00;99.90;;;;;;5054161;28;20441;-64
2023/12/08 06:45:52;;;;;;;21.57;15.13;;;5.10;99.90;;;;;;5054161;28;20450;-64
2023/12/08 06:48:21;;;;;;;19.87;14.73;;;5.10;99.90;;;;;;5054273;28;20499;-63
2023/12/08 06:50:47;;;;;;;21.40;15.33;;;5.00;99.90;;;;;;5053721;28;20532;-64
2023/12/08 06:53:16;;;;;;;19.23;14.10;;;5.00;99.90;;;;;;5053717;28;20936;-63
2023/12/08 06:55:43;;;;;;;21.33;14.80;;;4.90;99.90;;;;;;5053972;28;20644;-63
2023/12/08 06:58:09;;;;;;;24.63;14.67;;;5.00;99.90;;;;;;5053990;28;20519;-63
2023/12/08 07:00:37;;;;;;;20.53;13.43;;;5.00;99.90;;;;;;5053800;28;20508;-63
2023/12/08 07:03:04;;;;;;;20.10;13.47;;;5.00;99.90;;;;;;5053646;28;20461;-63
2023/12/08 07:05:31;;;;;;;19.87;15.23;;;5.00;99.90;;;;;;5053442;28;20469;-63
2023/12/08 07:07:58;;;;;;;20.80;14.53;;;5.00;99.90;;;;;;5053780;28;20454;-63
2023/12/08 07:10:24;;;;;;;19.77;13.77;;;5.10;99.90;;;;;;5053434;28;20528;-63
2023/12/08 07:12:52;;;;;;;20.20;14.70;;;5.10;99.90;;;;;;5053319;28;20479;-63
2023/12/08 07:15:20;;;;;;;20.20;13.40;;;5.10;99.90;;;;;;5053598;28;20468;-63
2023/12/08 07:17:48;;;;;;;22.00;17.00;;;5.10;99.90;;;;;;5053362;28;20453;-63
2023/12/08 07:20:17;;;;;;;23.57;16.40;;;5.10;99.90;;;;;;5052594;28;20465;-63
2023/12/08 07:22:43;;;;;;;22.27;14.30;;;5.20;99.90;;;;;;5053555;28;20456;-63
2023/12/08 07:25:12;;;;;;;23.33;16.90;;;5.20;99.90;;;;;;5053416;28;20445;-63
2023/12/08 07:27:39;;;;;;;23.80;17.03;;;5.20;99.90;;;;;;5053731;28;20441;-63
2023/12/08 07:30:07;;;;;;;28.57;16.97;;;5.20;99.90;;;;;;5053215;28;20458;-63
2023/12/08 07:32:34;;;;;;;24.00;17.37;;;5.20;99.90;;;;;;5053093;28;20828;-63
2023/12/08 07:35:02;;;;;;;25.10;17.30;;;5.20;99.90;;;;;;5052959;28;20935;-63
2023/12/08 07:37:28;;;;;;;23.90;17.63;;;5.20;99.90;;;;;;5053027;28;20955;-63
2023/12/08 07:39:55;;;;;;;26.10;18.53;;;5.20;99.90;;;;;;5053180;28;20461;-63
2023/12/08 07:42:22;;;;;;;34.27;18.97;;;5.20;99.90;;;;;;5053309;28;20464;-63
2023/12/08 07:44:48;;;;;;;23.43;16.90;;;5.20;99.90;;;;;;5052864;28;20437;-63
2023/12/08 07:47:15;;;;;;;23.73;17.63;;;5.20;99.90;;;;;;5053221;28;20438;-63
2023/12/08 07:49:42;;;;;;;23.00;18.10;;;5.30;99.90;;;;;;5053111;28;20461;-63
2023/12/08 07:52:10;;;;;;;26.07;16.80;;;5.30;99.90;;;;;;5053163;28;20901;-63
2023/12/08 07:54:37;;;;;;;27.70;18.13;;;5.30;99.90;;;;;;5052654;28;20485;-63
2023/12/08 07:57:04;;;;;;;22.90;16.30;;;5.30;99.90;;;;;;5052739;28;20928;-63
2023/12/08 07:59:31;;;;;;;25.27;17.50;;;5.30;99.90;;;;;;5052683;28;20991;-63
2023/12/08 08:01:57;;;;;;;23.93;17.70;;;5.30;99.90;;;;;;5053064;28;20464;-63
2023/12/08 08:04:25;;;;;;;27.83;17.17;;;5.30;99.90;;;;;;5052651;28;20512;-63
2023/12/08 08:06:51;;;;;;;23.00;16.53;;;5.30;99.90;;;;;;5052702;28;20969;-63
2023/12/08 08:09:20;;;;;;;25.40;18.17;;;5.30;99.90;;;;;;5053360;28;20450;-63
2023/12/08 08:11:47;;;;;;;24.50;17.87;;;5.30;99.90;;;;;;5052813;28;20512;-63
2023/12/08 08:14:14;;;;;;;26.13;19.50;;;5.40;99.90;;;;;;5052839;28;20495;-63
2023/12/08 08:16:41;;;;;;;30.43;18.93;;;5.40;99.90;;;;;;5052550;28;20953;-63
2023/12/08 08:19:08;;;;;;;23.53;16.97;;;5.40;99.90;;;;;;5052788;28;20449;-63
2023/12/08 08:21:34;;;;;;;27.67;19.40;;;5.40;99.90;;;;;;5052770;28;20437;-63
2023/12/08 08:24:01;;;;;;;32.93;20.43;;;5.40;99.90;;;;;;5052486;28;20953;-63
2023/12/08 08:26:29;;;;;;;28.70;17.90;;;5.50;99.90;;;;;;5052700;28;20819;-63
2023/12/08 08:28:56;;;;;;;24.10;16.60;;;5.50;99.90;;;;;;5052716;28;20445;-63
2023/12/08 08:31:23;;;;;;;22.20;15.80;;;5.50;99.90;;;;;;5052758;28;21038;-63
2023/12/08 08:33:49;;;;;;;23.20;16.43;;;5.50;99.90;;;;;;5056392;28;20441;-63
2023/12/08 08:36:16;;;;;;;23.80;15.83;;;5.50;99.90;;;;;;5056095;28;20445;-63
2023/12/08 08:38:43;;;;;;;21.40;15.97;;;5.50;99.90;;;;;;5056909;28;20445;-63
2023/12/08 08:41:10;;;;;;;30.80;15.40;;;5.50;99.90;;;;;;5056270;28;20489;-63
2023/12/08 08:43:38;;;;;;;23.27;15.10;;;5.50;99.90;;;;;;5056367;28;20453;-63
2023/12/08 08:46:05;;;;;;;27.80;16.50;;;5.50;99.90;;;;;;5056319;28;20520;-63
2023/12/08 08:48:32;;;;;;;20.60;14.50;;;5.50;99.90;;;;;;5056285;28;20498;-63
2023/12/08 08:50:59;;;;;;;21.93;15.30;;;5.60;99.90;;;;;;5055844;28;20481;-63
2023/12/08 08:53:26;;;;;;;22.87;14.40;;;5.60;99.90;;;;;;5055831;28;20936;-63
2023/12/08 08:55:53;;;;;;;20.03;15.43;;;5.60;99.90;;;;;;5055967;28;20449;-63
2023/12/08 08:58:20;;;;;;;19.00;14.00;;;5.60;99.90;;;;;;5055780;28;20951;-63
2023/12/08 09:00:48;;;;;;;21.03;14.27;;;5.60;99.90;;;;;;5056032;28;20851;-63
2023/12/08 09:03:14;;;;;;;20.13;14.77;;;5.70;99.90;;;;;;5055775;28;20457;-62
2023/12/08 09:05:41;;;;;;;20.10;15.17;;;5.70;99.90;;;;;;5056326;28;20452;-62
2023/12/08 09:08:08;;;;;;;20.33;14.47;;;5.70;99.90;;;;;;5056224;28;20452;-62
2023/12/08 09:10:35;;;;;;;23.70;14.33;;;5.80;99.90;;;;;;5055893;28;20882;-62
2023/12/08 09:13:02;;;;;;;18.17;13.50;;;5.70;99.90;;;;;;5056112;28;20449;-62
2023/12/08 09:15:29;;;;;;;22.33;14.43;;;5.80;99.90;;;;;;5055979;28;20507;-62
2023/12/08 09:17:57;;;;;;;26.93;15.10;;;5.80;99.90;;;;;;5055980;28;20488;-62
2023/12/08 09:20:24;;;;;;;22.67;15.23;;;5.80;99.90;;;;;;5055676;28;20461;-62
2023/12/08 09:22:51;;;;;;;22.27;16.90;;;5.80;99.90;;;;;;5055858;28;20444;-62
2023/12/08 09:25:18;;;;;;;24.43;16.13;;;5.80;99.90;;;;;;5055603;28;20476;-63
2023/12/08 09:27:45;;;;;;;24.80;17.37;;;5.80;99.90;;;;;;5055611;28;20476;-63
2023/12/08 09:30:13;;;;;;;28.63;18.57;;;5.80;99.90;;;;;;5055626;28;20465;-62
2023/12/08 09:32:40;;;;;;;24.87;17.40;;;5.90;99.90;;;;;;5055236;28;20842;-62
2023/12/08 09:35:08;;;;;;;25.70;16.90;;;5.90;99.90;;;;;;5055431;28;20441;-62
2023/12/08 09:37:35;;;;;;;24.67;16.47;;;5.90;99.90;;;;;;5055432;28;20580;-62
2023/12/08 09:40:02;;;;;;;25.17;17.63;;;6.00;99.90;;;;;;5055198;28;20461;-62
2023/12/08 09:42:36;;;;;;;24.93;18.20;;;6.00;99.90;;;;;;5054798;28;20940;-62
2023/12/08 09:45:04;;;;;;;26.70;18.37;;;6.00;99.90;;;;;;5054771;28;20426;-62
2023/12/08 09:47:34;;;;;;;26.20;18.97;;;6.00;99.90;;;;;;5055354;28;20516;-62
2023/12/08 09:50:03;;;;;;;24.00;17.20;;;6.10;99.90;;;;;;5055214;28;20465;-63
2023/12/08 09:52:33;;;;;;;23.60;19.30;;;6.10;99.90;;;;;;5055228;28;20486;-63
2023/12/08 09:55:00;;;;;;;24.17;18.07;;;6.10;99.90;;;;;;5055039;28;20437;-63
2023/12/08 09:57:28;;;;;;;24.30;15.83;;;6.10;99.90;;;;;;5054901;28;20866;-63
2023/12/08 09:59:56;;;;;;;24.67;17.07;;;6.20;99.90;;;;;;5055021;28;20465;-63
2023/12/08 10:02:23;;;;;;;22.80;17.27;;;6.20;99.90;;;;;;5054844;28;20453;-63
2023/12/08 10:04:49;;;;;;;26.10;18.20;;;6.30;99.90;;;;;;5055040;28;20418;-63
2023/12/08 10:07:19;;;;;;;23.13;17.30;;;6.30;99.90;;;;;;5054679;28;20452;-63
2023/12/08 10:09:47;;;;;;;25.83;17.83;;;6.40;99.90;;;;;;5054750;28;20884;-63
2023/12/08 10:12:15;;;;;;;24.50;17.10;;;6.40;99.90;;;;;;5054861;28;20485;-63
2023/12/08 10:14:52;;;;;;;23.90;17.10;;;6.50;99.90;;;;;;5054559;28;20963;-63
2023/12/08 10:17:20;;;;;;;22.97;16.63;;;6.50;99.90;;;;;;5054740;28;20463;-63
2023/12/08 10:19:46;;;;;;;26.03;18.57;;;6.50;99.90;;;;;;5054507;28;20465;-63
2023/12/08 10:22:13;;;;;;;25.20;16.80;;;6.50;99.90;;;;;;5054626;28;20441;-63
2023/12/08 10:24:42;;;;;;;21.33;15.43;;;6.50;99.90;;;;;;5054578;28;20445;-63
2023/12/08 10:27:10;;;;;;;21.50;15.70;;;6.50;99.90;;;;;;5054475;28;20437;-63
2023/12/08 10:29:37;;;;;;;21.73;15.57;;;6.60;99.90;;;;;;5054342;28;20477;-63
2023/12/08 10:32:05;;;;;;;25.57;15.33;;;6.60;99.90;;;;;;5054386;28;20888;-63
2023/12/08 10:34:32;;;;;;;20.87;13.73;;;6.70;99.90;;;;;;5054322;28;20477;-63
2023/12/08 10:36:59;;;;;;;19.63;14.73;;;6.70;99.90;;;;;;5054225;28;20794;-63
2023/12/08 10:39:26;;;;;;;18.87;12.30;;;6.80;99.90;;;;;;5054182;28;20812;-63
2023/12/08 10:41:53;;;;;;;17.17;13.27;;;6.80;99.90;;;;;;5054266;28;20452;-63
2023/12/08 10:44:21;;;;;;;16.00;13.17;;;6.90;99.90;;;;;;5054195;28;20437;-63
2023/12/08 10:46:48;;;;;;;19.13;13.70;;;6.90;99.90;;;;;;5053881;28;20938;-63
2023/12/08 10:49:19;;;;;;;25.40;14.80;;;6.90;99.90;;;;;;5053823;28;20963;-63
2023/12/08 10:51:46;;;;;;;17.07;12.77;;;7.00;99.90;;;;;;5053832;28;20473;-63
2023/12/08 10:54:16;;;;;;;15.90;12.60;;;7.00;99.90;;;;;;5053717;28;20958;-63
2023/12/08 10:56:43;;;;;;;20.00;13.50;;;7.00;99.90;;;;;;5053846;28;20525;-63
2023/12/08 10:59:11;;;;;;;22.80;13.37;;;7.00;99.90;;;;;;5053665;28;20932;-63
2023/12/08 11:01:40;;;;;;;18.60;12.83;;;7.10;99.90;;;;;;5054026;28;20445;-63
2023/12/08 11:04:11;;;;;;;20.13;13.10;;;7.10;99.90;;;;;;5053565;28;20477;-63
2023/12/08 11:06:54;;;;;;;19.53;14.07;;;7.10;99.90;;;;;;5053768;28;20464;-63
2023/12/08 11:09:23;;;;;;;23.13;13.47;;;7.10;99.90;;;;;;5053818;28;20426;-63
2023/12/08 11:11:54;;;;;;;22.37;12.80;;;7.10;99.90;;;;;;5053888;28;20473;-63
2023/12/08 11:14:32;;;;;;;21.27;12.80;;;7.10;99.90;;;;;;5053956;28;20421;-63
2023/12/08 11:17:04;;;;;;;21.67;13.63;;;7.10;99.90;;;;;;5053856;28;20525;-62
2023/12/08 11:19:33;;;;;;;16.20;11.70;;;7.10;99.90;;;;;;5053303;28;21051;-62
2023/12/08 11:22:01;;;;;;;17.87;11.83;;;7.20;99.90;;;;;;5053839;28;20444;-62
2023/12/08 11:24:28;;;;;;;18.77;12.37;;;7.10;99.90;;;;;;5053894;28;20453;-62
2023/12/08 11:27:05;;;;;;;21.63;13.03;;;7.20;99.90;;;;;;5053628;28;20445;-62
2023/12/08 11:29:42;;;;;;;25.13;12.57;;;7.20;99.90;;;;;;5053804;28;20462;-63
2023/12/08 11:32:18;;;;;;;23.93;12.40;;;7.20;99.90;;;;;;5053701;28;20511;-63
2023/12/08 11:34:51;;;;;;;21.43;13.70;;;7.20;99.90;;;;;;5053890;28;20429;-63
2023/12/08 11:37:18;;;;;;;17.57;13.47;;;7.30;99.90;;;;;;5053722;28;20521;-63
2023/12/08 11:39:45;;;;;;;19.47;13.37;;;7.30;99.90;;;;;;5053431;28;20994;-63
2023/12/08 11:42:15;;;;;;;18.73;12.37;;;7.30;99.90;;;;;;5053600;28;20437;-62
2023/12/08 11:44:43;;;;;;;18.43;12.67;;;7.30;99.90;;;;;;5053576;28;20445;-62
2023/12/08 11:47:14;;;;;;;20.57;14.13;;;7.40;99.90;;;;;;5053783;28;20445;-62
2023/12/08 11:49:43;;;;;;;19.43;11.87;;;7.40;99.90;;;;;;5053657;28;20466;-62
2023/12/08 11:52:15;;;;;;;24.33;12.03;;;7.40;99.90;;;;;;5052917;28;20473;-63
2023/12/08 11:55:09;;;;;;;24.87;13.13;;;7.40;99.90;;;;;;5053238;28;20907;-62
2023/12/08 11:57:40;;;;;;;25.07;13.40;;;7.40;99.90;;;;;;5053941;28;20426;-62
2023/12/08 12:00:10;;;;;;;25.80;12.80;;;7.40;99.90;;;;;;5054942;28;20504;-62
2023/12/08 12:02:41;;;;;;;32.07;20.60;;;7.50;99.90;;;;;;5053034;28;20461;-62
2023/12/08 12:05:09;;;;;;;105.63;64.53;;;7.60;99.90;;;;;;5052770;28;20966;-62
2023/12/08 12:07:36;;;;;;;49.90;37.13;;;7.60;99.90;;;;;;5055623;28;20449;-63
2023/12/08 12:10:04;;;;;;;23.30;17.27;;;7.60;99.90;;;;;;5056905;28;20567;-63
2023/12/08 12:12:32;;;;;;;28.20;22.70;;;7.60;99.90;;;;;;5057769;28;21078;-62
2023/12/08 12:15:03;;;;;;;26.77;17.13;;;7.60;99.90;;;;;;5058486;28;20449;-62
2023/12/08 12:17:30;;;;;;;37.53;26.90;;;7.60;99.90;;;;;;5057596;28;20460;-62
2023/12/08 12:19:59;;;;;;;30.07;22.93;;;7.60;99.90;;;;;;5057083;28;20983;-62
2023/12/08 12:22:25;;;;;;;27.03;20.27;;;7.60;99.90;;;;;;5057363;28;20448;-62
2023/12/08 12:24:52;;;;;;;30.00;18.53;;;7.70;99.90;;;;;;5057105;28;20445;-63
2023/12/08 12:27:19;;;;;;;26.40;18.90;;;7.70;99.90;;;;;;5057108;28;20449;-63
2023/12/08 12:29:46;;;;;;;32.73;20.90;;;7.80;99.90;;;;;;5056852;28;20469;-63
2023/12/08 12:32:14;;;;;;;31.90;18.37;;;7.80;99.90;;;;;;5057071;28;20508;-63
2023/12/08 12:34:41;;;;;;;33.43;19.97;;;7.90;99.90;;;;;;5056780;28;20442;-63
2023/12/08 12:37:10;;;;;;;24.23;16.80;;;7.90;99.90;;;;;;5056618;28;20445;-63